Airport View

Enter AWOS ICAO identifier for current METAR.

ex. KFNL

KOJA 191915Z AUTO 28005KT 10SM CLR A2981 RMK AO2

19 Jun 2019 19:33

Frequency: 118.575

Phone: 580-772-7020

Other Area AWOS: KCLK - KJWG - KCSM - KRQO

TAF KCSM 191725Z 1918/2018 34005KT P6SM SCT050 FM200300 13007KT P6SM SCT250